West Babylon, New York
Current Conditions -  °F | °C
As of 12:53 PM on Thursday 29 Jan 2015 (Local Time) from KFRG Reporting Station
Clear Clear  
Wind Chill: 23°   Ceiling: Unl
Heat Index: 30°   Visibility: 10mi
Dew Point:   Wind: 7mph
Humidity: 40%   Direction: 150°SSE
Pressure: 30.24"   Gusts: NA
Location:  40.7°N, 73.35°W
Report Text: KFRG 291753Z 15006KT 10SM CLR M01/M13 A3024 RMK AO2 SLP240 T10111133 10000 21106 58026
Loading
Personal Weather Stations






























Interactive Weather Map New forecast layout! Learn more

10-Day Weather Forecast

Advertisements
Track Severe Weather on mobile